Time;durP1;ratioP1;P1;durP2;ratioP2;P2;SDS_P1;SDS_P2;PMS_P1;PMS_P2;Temp;Humidity;BMP_temperature;BMP_pressure;BME280_temperature;BME280_humidity;BME280_pressure;Samples;Min_cycle;Max_cycle;Signal;HPM_P1;HPM_P2
2022/07/11 00:02:01;;;;;;;;;;;21.90;99.40;;;;;;5096137;28;19934;-79
2022/07/11 00:04:27;;;;;;;;;;;22.10;98.40;;;;;;5095989;28;19964;-79
2022/07/11 00:06:53;;;;;;;;;;;22.20;98.20;;;;;;5095872;28;20280;-78
2022/07/11 00:09:19;;;;;;;;;;;22.30;97.70;;;;;;5096336;28;20003;-79
2022/07/11 00:11:44;;;;;;;;;;;22.20;98.30;;;;;;5095841;28;20330;-79
2022/07/11 00:14:10;;;;;;;;;;;22.10;98.20;;;;;;5095840;28;19920;-80
2022/07/11 00:16:36;;;;;;;;;;;22.00;98.90;;;;;;5095770;28;19947;-80
2022/07/11 00:19:01;;;;;;;;;;;21.70;99.90;;;;;;5095721;28;19961;-79
2022/07/11 00:21:27;;;;;;;;;;;21.80;99.90;;;;;;5095679;28;19918;-79
2022/07/11 00:23:52;;;;;;;;;;;21.70;99.90;;;;;;5095611;28;19912;-80
2022/07/11 00:26:18;;;;;;;;;;;21.70;99.90;;;;;;5095612;28;19908;-80
2022/07/11 00:28:43;;;;;;;;;;;21.70;99.90;;;;;;5095486;28;20357;-79
2022/07/11 00:31:10;;;;;;;;;;;21.30;99.90;;;;;;5095884;28;19908;-79
2022/07/11 00:33:35;;;;;;;;;;;21.30;99.90;;;;;;5095771;28;19908;-79
2022/07/11 00:36:01;;;;;;;;;;;21.20;99.90;;;;;;5095400;28;19908;-79
2022/07/11 00:38:27;;;;;;;;;;;21.30;99.90;;;;;;5095362;28;19912;-79
2022/07/11 00:40:52;;;;;;;;;;;21.30;99.90;;;;;;5095115;28;19991;-79
2022/07/11 00:43:19;;;;;;;;;;;21.00;99.90;;;;;;5095386;28;19916;-79
2022/07/11 00:45:47;;;;;;;;;;;21.10;99.90;;;;;;5095192;28;19934;-80
2022/07/11 00:48:13;;;;;;;;;;;20.90;99.90;;;;;;5095190;28;19931;-79
2022/07/11 00:50:39;;;;;;;;;;;20.80;99.90;;;;;;5095064;28;20360;-79
2022/07/11 00:53:04;;;;;;;;;;;21.00;99.90;;;;;;5095071;28;19908;-80
2022/07/11 00:55:30;;;;;;;;;;;21.20;99.90;;;;;;5094977;28;19908;-79
2022/07/11 00:57:56;;;;;;;;;;;21.30;99.90;;;;;;5094940;28;20360;-80
2022/07/11 01:00:21;;;;;;;;;;;21.30;99.90;;;;;;5094939;28;19912;-80
2022/07/11 01:02:47;;;;;;;;;;;21.30;99.90;;;;;;5094818;28;20346;-80
2022/07/11 01:05:13;;;;;;;;;;;21.20;99.90;;;;;;5095283;28;20454;-80
2022/07/11 01:07:38;;;;;;;;;;;21.20;99.90;;;;;;5095041;28;19950;-79
2022/07/11 01:10:04;;;;;;;;;;;21.10;99.90;;;;;;5094767;28;19908;-80
2022/07/11 01:12:30;;;;;;;;;;;21.00;99.90;;;;;;5094779;28;19908;-79
2022/07/11 01:14:59;;;;;;;;;;;20.80;99.90;;;;;;5095018;28;19915;-80
2022/07/11 01:17:24;;;;;;;;;;;20.80;99.90;;;;;;5094593;28;20292;-80
2022/07/11 01:19:50;;;;;;;;;;;20.80;99.90;;;;;;5094519;28;19908;-79
2022/07/11 01:22:17;;;;;;;;;;;20.80;99.90;;;;;;5094452;28;19915;-80
2022/07/11 01:24:44;;;;;;;;;;;20.80;99.90;;;;;;5095170;28;19962;-78
2022/07/11 01:27:09;;;;;;;;;;;20.70;99.90;;;;;;5076169;28;19908;-80
2022/07/11 01:29:35;;;;;;;;;;;20.60;99.90;;;;;;5094683;28;19965;-80
2022/07/11 01:32:00;;;;;;;;;;;20.70;99.90;;;;;;5094349;28;19915;-79
2022/07/11 01:34:26;;;;;;;;;;;20.60;99.90;;;;;;5094436;28;20034;-79
2022/07/11 01:36:51;;;;;;;;;;;20.70;99.90;;;;;;5093738;28;19915;-80
2022/07/11 01:39:17;;;;;;;;;;;20.60;99.90;;;;;;5094466;28;19919;-79
2022/07/11 01:41:43;;;;;;;;;;;20.60;99.90;;;;;;5093940;28;19916;-80
2022/07/11 01:44:08;;;;;;;;;;;20.50;99.90;;;;;;5094171;28;19916;-79
2022/07/11 01:46:34;;;;;;;;;;;20.40;99.90;;;;;;5094137;28;20277;-80
2022/07/11 01:48:59;;;;;;;;;;;20.30;99.90;;;;;;5094051;28;19923;-79
2022/07/11 01:51:25;;;;;;;;;;;20.20;99.90;;;;;;5094088;28;19908;-80
2022/07/11 01:53:52;;;;;;;;;;;20.20;99.90;;;;;;5094007;28;20364;-79
2022/07/11 01:56:17;;;;;;;;;;;20.10;99.90;;;;;;5093970;28;19958;-80
2022/07/11 01:58:43;;;;;;;;;;;20.10;99.90;;;;;;5094245;28;19912;-80
2022/07/11 02:01:09;;;;;;;;;;;20.00;99.90;;;;;;5094140;28;19908;-80
2022/07/11 02:03:34;;;;;;;;;;;20.00;99.90;;;;;;5093815;28;20364;-79
2022/07/11 02:06:00;;;;;;;;;;;19.90;99.90;;;;;;5093878;28;19915;-80
2022/07/11 02:08:26;;;;;;;;;;;19.90;99.90;;;;;;5094110;28;19955;-80
2022/07/11 02:10:52;;;;;;;;;;;19.90;99.90;;;;;;5093898;28;20436;-79
2022/07/11 02:13:19;;;;;;;;;;;19.90;99.90;;;;;;5093773;28;19958;-80
2022/07/11 02:15:46;;;;;;;;;;;19.80;99.90;;;;;;5093722;28;19908;-79
2022/07/11 02:18:12;;;;;;;;;;;19.70;99.90;;;;;;5093691;28;19954;-80
2022/07/11 02:20:39;;;;;;;;;;;19.70;99.90;;;;;;5075578;28;19912;-79
2022/07/11 02:23:05;;;;;;;;;;;19.70;99.90;;;;;;5093742;28;19918;-79
2022/07/11 02:25:31;;;;;;;;;;;19.70;99.90;;;;;;5094184;28;19909;-79
2022/07/11 02:27:57;;;;;;;;;;;19.60;99.90;;;;;;5093899;28;20491;-79
2022/07/11 02:30:23;;;;;;;;;;;19.60;99.90;;;;;;5093623;28;20003;-79
2022/07/11 02:32:50;;;;;;;;;;;19.60;99.90;;;;;;5093866;28;19916;-80
2022/07/11 02:35:15;;;;;;;;;;;19.60;99.90;;;;;;5093621;28;19912;-80
2022/07/11 02:37:41;;;;;;;;;;;19.60;99.90;;;;;;5093545;28;19970;-80
2022/07/11 02:40:07;;;;;;;;;;;19.60;99.90;;;;;;5093341;28;19908;-79
2022/07/11 02:42:33;;;;;;;;;;;19.60;99.90;;;;;;5093832;28;19958;-79
2022/07/11 02:44:58;;;;;;;;;;;19.60;99.90;;;;;;5093435;28;19916;-80
2022/07/11 02:47:24;;;;;;;;;;;19.60;99.90;;;;;;5093417;28;19908;-79
2022/07/11 02:49:49;;;;;;;;;;;19.50;99.90;;;;;;5079140;28;20356;-79
2022/07/11 02:52:15;;;;;;;;;;;19.40;99.90;;;;;;5097770;28;19908;-79
2022/07/11 02:54:41;;;;;;;;;;;19.40;99.90;;;;;;5097495;28;20053;-79
2022/07/11 02:57:06;;;;;;;;;;;19.30;99.90;;;;;;5097336;28;19959;-79
2022/07/11 02:59:32;;;;;;;;;;;19.30;99.90;;;;;;5097240;28;19909;-79
2022/07/11 03:01:58;;;;;;;;;;;19.30;99.90;;;;;;5097194;28;20330;-80
2022/07/11 03:04:23;;;;;;;;;;;19.20;99.90;;;;;;5097450;28;19912;-80
2022/07/11 03:06:49;;;;;;;;;;;19.20;99.90;;;;;;5097340;28;19912;-79
2022/07/11 03:09:14;;;;;;;;;;;19.20;99.90;;;;;;5097089;28;19908;-79
2022/07/11 03:11:40;;;;;;;;;;;19.00;99.90;;;;;;5097022;28;19909;-80
2022/07/11 03:14:06;;;;;;;;;;;18.90;99.90;;;;;;5097011;28;19922;-79
2022/07/11 03:16:31;;;;;;;;;;;18.90;99.90;;;;;;5097113;28;19914;-79
2022/07/11 03:18:57;;;;;;;;;;;18.80;99.90;;;;;;5097079;28;19912;-80
2022/07/11 03:21:24;;;;;;;;;;;18.80;99.90;;;;;;5096917;28;19934;-79
2022/07/11 03:23:49;;;;;;;;;;;18.80;99.90;;;;;;5096700;28;20357;-78
2022/07/11 03:26:15;;;;;;;;;;;18.80;99.90;;;;;;5097281;28;19908;-78
2022/07/11 03:28:41;;;;;;;;;;;18.80;99.90;;;;;;5096863;28;19912;-79
2022/07/11 03:31:06;;;;;;;;;;;18.80;99.90;;;;;;5096680;28;19908;-80
2022/07/11 03:33:32;;;;;;;;;;;18.70;99.90;;;;;;5096646;28;19935;-79
2022/07/11 03:35:58;;;;;;;;;;;18.60;99.90;;;;;;5096878;28;19908;-79
2022/07/11 03:38:23;;;;;;;;;;;18.40;99.90;;;;;;5096750;28;20398;-79
2022/07/11 03:40:49;;;;;;;;;;;18.40;99.90;;;;;;5096209;28;19963;-79
2022/07/11 03:43:15;;;;;;;;;;;18.40;99.90;;;;;;5096405;28;20368;-80
2022/07/11 03:45:41;;;;;;;;;;;18.40;99.90;;;;;;5096391;28;19908;-78
2022/07/11 03:48:07;;;;;;;;;;;18.40;99.90;;;;;;5096289;28;19931;-78
2022/07/11 03:50:33;;;;;;;;;;;18.50;99.90;;;;;;5096274;28;19915;-78
2022/07/11 03:52:59;;;;;;;;;;;18.40;99.90;;;;;;5096299;28;19948;-78
2022/07/11 03:55:24;;;;;;;;;;;18.40;99.90;;;;;;5096190;28;20344;-78
2022/07/11 03:57:50;;;;;;;;;;;18.40;99.90;;;;;;5096109;28;19915;-79
2022/07/11 04:00:16;;;;;;;;;;;18.40;99.90;;;;;;5094980;28;19915;-80
2022/07/11 04:02:41;;;;;;;;;;;18.40;99.90;;;;;;5096055;28;19908;-80
2022/07/11 04:05:07;;;;;;;;;;;18.40;99.90;;;;;;5096160;28;20005;-79
2022/07/11 04:07:33;;;;;;;;;;;18.40;99.90;;;;;;5095938;28;19908;-80
2022/07/11 04:09:58;;;;;;;;;;;18.40;99.90;;;;;;5095952;28;19908;-78
2022/07/11 04:12:24;;;;;;;;;;;18.30;99.90;;;;;;5095867;28;19922;-80
2022/07/11 04:14:50;;;;;;;;;;;18.20;99.90;;;;;;5095815;28;20297;-80
2022/07/11 04:17:15;;;;;;;;;;;18.20;99.90;;;;;;5095759;28;19957;-79
2022/07/11 04:19:42;;;;;;;;;;;18.10;99.90;;;;;;5096204;28;20045;-79
2022/07/11 04:22:08;;;;;;;;;;;18.20;99.90;;;;;;5096044;28;19919;-78
2022/07/11 04:24:34;;;;;;;;;;;18.20;99.90;;;;;;5095832;28;20360;-79
2022/07/11 04:26:59;;;;;;;;;;;18.20;99.90;;;;;;5096104;28;19923;-78
2022/07/11 04:29:25;;;;;;;;;;;18.10;99.90;;;;;;5095567;28;19908;-79
2022/07/11 04:31:51;;;;;;;;;;;18.20;99.90;;;;;;5095672;28;19912;-80
2022/07/11 04:34:17;;;;;;;;;;;18.20;99.90;;;;;;5095608;28;19908;-78
2022/07/11 04:36:42;;;;;;;;;;;18.20;99.90;;;;;;5095432;28;20391;-80
2022/07/11 04:39:08;;;;;;;;;;;18.20;99.90;;;;;;5095353;28;19908;-79
2022/07/11 04:41:34;;;;;;;;;;;18.20;99.90;;;;;;5095127;28;20334;-78
2022/07/11 04:43:59;;;;;;;;;;;18.20;99.90;;;;;;5095199;28;20010;-80
2022/07/11 04:46:25;;;;;;;;;;;18.30;99.90;;;;;;5095281;28;19908;-79
2022/07/11 04:48:51;;;;;;;;;;;18.40;99.90;;;;;;5076928;28;20398;-80
2022/07/11 04:51:17;;;;;;;;;;;18.30;99.90;;;;;;5095178;28;19995;-79
2022/07/11 04:53:42;;;;;;;;;;;18.30;99.90;;;;;;5076970;28;19908;-80
2022/07/11 04:56:08;;;;;;;;;;;18.30;99.90;;;;;;5095027;28;20268;-80
2022/07/11 04:58:35;;;;;;;;;;;18.30;99.90;;;;;;5094996;28;19965;-80
2022/07/11 05:01:01;;;;;;;;;;;18.40;99.90;;;;;;5095129;28;20423;-79
2022/07/11 05:03:26;;;;;;;;;;;18.40;99.90;;;;;;5094835;28;19960;-80
2022/07/11 05:05:52;;;;;;;;;;;18.40;99.90;;;;;;5094811;28;19950;-78
2022/07/11 05:08:18;;;;;;;;;;;18.40;99.90;;;;;;5095012;28;19919;-79
2022/07/11 05:10:43;;;;;;;;;;;18.40;99.90;;;;;;5094704;28;19974;-79
2022/07/11 05:13:09;;;;;;;;;;;18.40;99.90;;;;;;5094753;28;20311;-79
2022/07/11 05:15:34;;;;;;;;;;;18.50;99.90;;;;;;5076446;28;19909;-79
2022/07/11 05:18:00;;;;;;;;;;;18.60;99.90;;;;;;5094716;28;19912;-79
2022/07/11 05:20:25;;;;;;;;;;;18.70;99.90;;;;;;5094575;28;19912;-79
2022/07/11 05:22:51;;;;;;;;;;;18.80;99.90;;;;;;5076234;28;19919;-79
2022/07/11 05:25:17;;;;;;;;;;;18.80;99.90;;;;;;5095495;28;19954;-80
2022/07/11 05:27:42;;;;;;;;;;;18.80;99.90;;;;;;5094806;28;19908;-79
2022/07/11 05:30:08;;;;;;;;;;;18.90;99.90;;;;;;5094481;28;19915;-79
2022/07/11 05:32:34;;;;;;;;;;;19.10;99.90;;;;;;5094288;28;19994;-79
2022/07/11 05:35:02;;;;;;;;;;;19.30;99.90;;;;;;5094430;28;20324;-79
2022/07/11 05:37:28;;;;;;;;;;;19.50;99.90;;;;;;5094456;28;19912;-78
2022/07/11 05:39:53;;;;;;;;;;;19.70;99.90;;;;;;5094166;28;19912;-79
2022/07/11 05:42:19;;;;;;;;;;;19.70;99.90;;;;;;5075928;28;19920;-78
2022/07/11 05:44:44;;;;;;;;;;;19.80;99.90;;;;;;5094321;28;19916;-79
2022/07/11 05:47:10;;;;;;;;;;;19.90;99.90;;;;;;5094840;28;20250;-80
2022/07/11 05:49:36;;;;;;;;;;;20.00;99.90;;;;;;5094276;28;19908;-80
2022/07/11 05:52:04;;;;;;;;;;;20.10;99.90;;;;;;5094270;28;20403;-79
2022/07/11 05:54:30;;;;;;;;;;;20.20;99.90;;;;;;5094648;28;20019;-78
2022/07/11 05:56:55;;;;;;;;;;;20.30;99.90;;;;;;5094487;28;20388;-79
2022/07/11 05:59:21;;;;;;;;;;;20.30;99.90;;;;;;5094143;28;19998;-80
2022/07/11 06:01:47;;;;;;;;;;;20.40;99.90;;;;;;5094142;28;19936;-78
2022/07/11 06:04:13;;;;;;;;;;;20.50;99.90;;;;;;5093822;28;19954;-79
2022/07/11 06:06:39;;;;;;;;;;;20.60;99.90;;;;;;5093821;28;19916;-80
2022/07/11 06:09:05;;;;;;;;;;;20.70;99.90;;;;;;5094313;28;19908;-80
2022/07/11 06:11:31;;;;;;;;;;;20.80;99.90;;;;;;5093990;28;19961;-80
2022/07/11 06:13:57;;;;;;;;;;;20.80;99.90;;;;;;5093894;28;20409;-80
2022/07/11 06:16:22;;;;;;;;;;;20.90;99.90;;;;;;5093790;28;19912;-79
2022/07/11 06:18:48;;;;;;;;;;;20.90;99.90;;;;;;5093756;28;19915;-79
2022/07/11 06:21:14;;;;;;;;;;;21.10;99.90;;;;;;5093893;28;19958;-80
2022/07/11 06:23:40;;;;;;;;;;;21.20;99.90;;;;;;5095677;28;20364;-80
2022/07/11 06:26:06;;;;;;;;;;;21.30;99.90;;;;;;5098473;28;19908;-80
2022/07/11 06:28:31;;;;;;;;;;;21.30;99.90;;;;;;5097804;28;20323;-79
2022/07/11 06:30:57;;;;;;;;;;;21.40;99.90;;;;;;5097888;28;20415;-79
2022/07/11 06:33:23;;;;;;;;;;;21.50;99.90;;;;;;5097843;28;19934;-80
2022/07/11 06:35:49;;;;;;;;;;;21.50;99.90;;;;;;5097709;28;19912;-80
2022/07/11 06:38:15;;;;;;;;;;;21.70;99.90;;;;;;5097744;28;19908;-79
2022/07/11 06:40:42;;;;;;;;;;;21.80;99.90;;;;;;5097637;28;19966;-80
2022/07/11 06:43:10;;;;;;;;;;;21.80;99.90;;;;;;5097788;28;19978;-80
2022/07/11 06:45:36;;;;;;;;;;;21.90;99.90;;;;;;5097829;28;20348;-80
2022/07/11 06:48:02;;;;;;;;;;;22.00;99.90;;;;;;5097494;28;19908;-79
2022/07/11 06:50:28;;;;;;;;;;;22.00;99.90;;;;;;5097785;28;19991;-80
2022/07/11 06:52:54;;;;;;;;;;;22.00;99.90;;;;;;5097687;28;19999;-80
2022/07/11 06:55:19;;;;;;;;;;;22.10;99.90;;;;;;5097423;28;19923;-78
2022/07/11 06:57:45;;;;;;;;;;;22.20;99.90;;;;;;5097237;28;20006;-80
2022/07/11 07:00:11;;;;;;;;;;;22.30;99.90;;;;;;5097519;28;19998;-79
2022/07/11 07:02:38;;;;;;;;;;;22.40;99.90;;;;;;5097356;28;20315;-80
2022/07/11 07:05:04;;;;;;;;;;;22.50;99.90;;;;;;5097385;28;19920;-79
2022/07/11 07:07:30;;;;;;;;;;;22.50;99.90;;;;;;5097250;28;20033;-80
2022/07/11 07:09:55;;;;;;;;;;;22.50;99.90;;;;;;5097083;28;19951;-80
2022/07/11 07:12:21;;;;;;;;;;;22.60;99.90;;;;;;5097514;28;19966;-79
2022/07/11 07:14:47;;;;;;;;;;;22.60;99.90;;;;;;5097019;28;19912;-79
2022/07/11 07:17:13;;;;;;;;;;;22.70;99.90;;;;;;5097092;28;19995;-80
2022/07/11 07:19:39;;;;;;;;;;;22.60;99.90;;;;;;5096996;28;19943;-79
2022/07/11 07:22:05;;;;;;;;;;;22.70;99.90;;;;;;5096847;28;19908;-79
2022/07/11 07:24:31;;;;;;;;;;;22.80;99.90;;;;;;5097033;28;19918;-80
2022/07/11 07:26:57;;;;;;;;;;;22.90;99.90;;;;;;5097313;28;19923;-80
2022/07/11 07:29:23;;;;;;;;;;;23.00;99.90;;;;;;5096737;28;19909;-80
2022/07/11 07:31:49;;;;;;;;;;;23.00;99.80;;;;;;5096748;28;19912;-80
2022/07/11 07:34:14;;;;;;;;;;;23.00;99.70;;;;;;5096657;28;19916;-80
2022/07/11 07:36:40;;;;;;;;;;;23.10;99.90;;;;;;5096629;28;19916;-79
2022/07/11 07:39:05;;;;;;;;;;;23.30;99.10;;;;;;5096614;28;19908;-79
2022/07/11 07:41:31;;;;;;;;;;;23.30;97.40;;;;;;5096360;28;20024;-80
2022/07/11 07:43:57;;;;;;;;;;;24.30;95.00;;;;;;5096864;28;19916;-80
2022/07/11 07:46:22;;;;;;;;;;;27.00;85.80;;;;;;5096424;28;19909;-81
2022/07/11 07:48:48;;;;;;;;;;;30.10;75.00;;;;;;5096355;28;19919;-80
2022/07/11 07:51:13;;;;;;;;;;;31.40;67.40;;;;;;5096589;28;19908;-80
2022/07/11 07:53:39;;;;;;;;;;;32.20;62.60;;;;;;5096311;28;19916;-79
2022/07/11 07:56:05;;;;;;;;;;;33.00;60.00;;;;;;5096409;28;19954;-81
2022/07/11 07:58:30;;;;;;;;;;;33.30;59.20;;;;;;5096340;28;19922;-82
2022/07/11 08:03:40;;;;;;;;;;;33.80;55.90;;;;;;5095986;28;19965;-82
2022/07/11 08:06:06;;;;;;;;;;;33.20;56.10;;;;;;5096491;28;19908;-81
2022/07/11 08:08:31;;;;;;;;;;;33.00;56.50;;;;;;5098772;28;20326;-80
2022/07/11 08:11:00;;;;;;;;;;;32.70;55.80;;;;;;5096086;28;20276;-81
2022/07/11 08:13:26;;;;;;;;;;;32.50;56.20;;;;;;5095875;28;19957;-78
2022/07/11 08:15:52;;;;;;;;;;;32.20;56.90;;;;;;5095931;28;19909;-78
2022/07/11 08:18:18;;;;;;;;;;;31.50;57.00;;;;;;5095755;28;20317;-78
2022/07/11 08:20:43;;;;;;;;;;;31.30;58.20;;;;;;5095918;28;19923;-77
2022/07/11 08:23:09;;;;;;;;;;;31.30;58.60;;;;;;5095869;28;19999;-78
2022/07/11 08:25:34;;;;;;;;;;;31.10;59.20;;;;;;5096231;28;20280;-77
2022/07/11 08:28:00;;;;;;;;;;;30.80;59.40;;;;;;5095564;28;19957;-79
2022/07/11 08:30:25;;;;;;;;;;;30.70;59.70;;;;;;5096040;28;19930;-77
2022/07/11 08:32:51;;;;;;;;;;;30.60;59.20;;;;;;5095474;28;19962;-78
2022/07/11 08:35:17;;;;;;;;;;;30.00;60.00;;;;;;5095433;28;19914;-79
2022/07/11 08:37:43;;;;;;;;;;;30.00;60.00;;;;;;5095518;28;19914;-78
2022/07/11 08:40:09;;;;;;;;;;;29.80;60.60;;;;;;5095278;28;19908;-77
2022/07/11 08:42:41;;;;;;;;;;;30.10;61.40;;;;;;5095473;28;19904;-77
2022/07/11 08:45:13;;;;;;;;;;;30.60;60.90;;;;;;5095576;28;20046;-77
2022/07/11 08:47:39;;;;;;;;;;;30.80;60.20;;;;;;5094921;28;20280;-79
2022/07/11 08:50:05;;;;;;;;;;;30.70;59.80;;;;;;5095206;28;19908;-78
2022/07/11 08:52:34;;;;;;;;;;;30.60;59.40;;;;;;5095224;28;19930;-78
2022/07/11 08:54:59;;;;;;;;;;;30.50;59.00;;;;;;5095286;28;20261;-76
2022/07/11 08:57:25;;;;;;;;;;;30.30;59.10;;;;;;5095346;28;19916;-77
2022/07/11 08:59:54;;;;;;;;;;;30.30;58.90;;;;;;5095054;28;20328;-77
2022/07/11 09:02:20;;;;;;;;;;;30.30;58.60;;;;;;5094919;28;19908;-77
2022/07/11 09:05:08;;;;;;;;;;;30.40;59.00;;;;;;5094806;28;20380;-76
2022/07/11 09:07:34;;;;;;;;;;;30.50;59.10;;;;;;5095138;28;19908;-77
2022/07/11 09:10:00;;;;;;;;;;;30.70;58.70;;;;;;5094908;28;19908;-78
2022/07/11 09:12:26;;;;;;;;;;;30.90;58.40;;;;;;5094906;28;19908;-77
2022/07/11 09:14:54;;;;;;;;;;;30.90;58.30;;;;;;5094759;28;19915;-77
2022/07/11 09:17:27;;;;;;;;;;;31.00;58.40;;;;;;5094828;28;19908;-79
2022/07/11 09:19:53;;;;;;;;;;;31.50;57.60;;;;;;5094608;28;19908;-77
2022/07/11 09:27:48;;;;;;;;;;;31.30;57.30;;;;;;5094920;28;20048;-79
2022/07/11 09:30:35;;;;;;;;;;;31.50;57.20;;;;;;5094538;28;19954;-78
2022/07/11 09:33:02;;;;;;;;;;;31.50;56.70;;;;;;5094255;28;19909;-78
2022/07/11 09:35:30;;;;;;;;;;;31.50;57.20;;;;;;5094296;28;19912;-78
2022/07/11 09:37:56;;;;;;;;;;;32.00;57.20;;;;;;5094205;28;19916;-79
2022/07/11 09:40:22;;;;;;;;;;;32.50;55.60;;;;;;5094356;28;19912;-78
2022/07/11 09:42:48;;;;;;;;;;;32.90;55.10;;;;;;5094488;28;19915;-78
2022/07/11 09:45:14;;;;;;;;;;;32.90;54.40;;;;;;5094076;28;19916;-78
2022/07/11 09:47:47;;;;;;;;;;;33.20;54.30;;;;;;5094408;28;19908;-77
2022/07/11 09:50:13;;;;;;;;;;;33.40;54.50;;;;;;5094074;28;20391;-78
2022/07/11 09:52:41;;;;;;;;;;;33.20;53.50;;;;;;5094212;28;20303;-78
2022/07/11 09:55:07;;;;;;;;;;;33.50;53.50;;;;;;5075870;28;20317;-79
2022/07/11 09:57:33;;;;;;;;;;;33.50;53.90;;;;;;5093594;28;19995;-79
2022/07/11 10:00:00;;;;;;;;;;;33.70;53.40;;;;;;5093936;28;19946;-78
2022/07/11 10:02:25;;;;;;;;;;;33.80;53.10;;;;;;5093961;28;19956;-79
2022/07/11 10:07:35;;;;;;;;;;;34.10;52.30;;;;;;5094135;28;19962;-78
2022/07/11 10:10:02;;;;;;;;;;;33.70;53.00;;;;;;5093815;28;19939;-77
2022/07/11 10:12:31;;;;;;;;;;;34.20;52.60;;;;;;5094048;28;19962;-79
2022/07/11 10:17:43;;;;;;;;;;;34.20;52.00;;;;;;5094125;28;19955;-78
2022/07/11 10:20:12;;;;;;;;;;;35.00;51.20;;;;;;5093899;28;19908;-79
2022/07/11 10:22:42;;;;;;;;;;;34.70;51.20;;;;;;5093728;28;19908;-79
2022/07/11 10:25:25;;;;;;;;;;;34.60;51.40;;;;;;5093580;28;19912;-79
2022/07/11 10:28:06;;;;;;;;;;;34.80;51.20;;;;;;5094624;28;19912;-77
2022/07/11 10:30:46;;;;;;;;;;;34.70;51.50;;;;;;5093916;28;20277;-79
2022/07/11 10:33:12;;;;;;;;;;;35.60;51.10;;;;;;5093752;28;19908;-78
2022/07/11 10:35:41;;;;;;;;;;;35.80;50.00;;;;;;5093511;28;20393;-78
2022/07/11 10:38:07;;;;;;;;;;;35.80;50.00;;;;;;5075476;28;19914;-78
2022/07/11 10:40:52;;;;;;;;;;;36.60;50.70;;;;;;5093404;28;19998;-78
2022/07/11 10:43:30;;;;;;;;;;;36.60;49.80;;;;;;5093607;28;20458;-81
2022/07/11 10:45:56;;;;;;;;;;;36.50;49.50;;;;;;5093482;28;19995;-77
2022/07/11 10:48:22;;;;;;;;;;;36.40;48.90;;;;;;5093479;28;19936;-79
2022/07/11 10:50:53;;;;;;;;;;;37.10;49.00;;;;;;5093585;28;19934;-81
2022/07/11 10:53:22;;;;;;;;;;;36.80;48.20;;;;;;5093544;28;19912;-81
2022/07/11 10:56:02;;;;;;;;;;;35.90;48.20;;;;;;5093583;28;19913;-81
2022/07/11 10:58:31;;;;;;;;;;;35.60;48.80;;;;;;5093548;28;19908;-81
2022/07/11 11:01:10;;;;;;;;;;;35.60;49.40;;;;;;5093348;28;19908;-78
2022/07/11 11:03:35;;;;;;;;;;;36.30;48.50;;;;;;5093271;28;20364;-80
2022/07/11 11:06:01;;;;;;;;;;;36.40;48.80;;;;;;5093499;28;20007;-78
2022/07/11 11:08:33;;;;;;;;;;;36.50;48.10;;;;;;5093307;28;19908;-77
2022/07/11 11:10:59;;;;;;;;;;;36.80;48.60;;;;;;5097089;28;20380;-78
2022/07/11 11:13:25;;;;;;;;;;;37.40;47.80;;;;;;5097064;28;19939;-79
2022/07/11 11:15:55;;;;;;;;;;;38.00;47.10;;;;;;5097100;28;19919;-80
2022/07/11 11:18:24;;;;;;;;;;;38.70;47.00;;;;;;5096925;28;19957;-78
2022/07/11 11:20:59;;;;;;;;;;;38.50;46.80;;;;;;5096911;28;19915;-80
2022/07/11 11:23:25;;;;;;;;;;;38.70;46.60;;;;;;5096771;28;20424;-78
2022/07/11 11:25:51;;;;;;;;;;;38.30;46.80;;;;;;5096838;28;19998;-78
2022/07/11 11:28:20;;;;;;;;;;;38.40;46.80;;;;;;5097373;28;20004;-80
2022/07/11 11:30:55;;;;;;;;;;;38.30;46.20;;;;;;5096696;28;19908;-79
2022/07/11 11:33:21;;;;;;;;;;;39.10;46.80;;;;;;5096668;28;19908;-78
2022/07/11 11:36:05;;;;;;;;;;;40.20;45.70;;;;;;5096716;28;20268;-78
2022/07/11 11:38:38;;;;;;;;;;;39.90;45.80;;;;;;5096597;28;19908;-80
2022/07/11 11:41:05;;;;;;;;;;;39.40;46.10;;;;;;5096481;28;19916;-79
2022/07/11 11:43:31;;;;;;;;;;;39.40;46.00;;;;;;5096402;28;19960;-79
2022/07/11 11:45:57;;;;;;;;;;;39.50;46.00;;;;;;5096738;28;20430;-79
2022/07/11 11:48:26;;;;;;;;;;;39.20;45.80;;;;;;5096380;28;20323;-78
2022/07/11 11:50:53;;;;;;;;;;;38.80;46.00;;;;;;5096619;28;19958;-80
2022/07/11 11:53:18;;;;;;;;;;;39.20;46.20;;;;;;5096326;28;19958;-79
2022/07/11 11:55:44;;;;;;;;;;;39.40;46.10;;;;;;5096309;28;20331;-79
2022/07/11 11:58:09;;;;;;;;;;;39.50;45.50;;;;;;5096226;28;19912;-79
2022/07/11 12:00:35;;;;;;;;;;;39.30;46.00;;;;;;5096181;28;19932;-79
2022/07/11 12:03:01;;;;;;;;;;;39.50;45.70;;;;;;5077973;28;19999;-80
2022/07/11 12:05:28;;;;;;;;;;;39.40;45.60;;;;;;5096457;28;19912;-78
2022/07/11 12:07:54;;;;;;;;;;;39.70;45.60;;;;;;5096035;28;19909;-79
2022/07/11 12:10:19;;;;;;;;;;;40.00;45.80;;;;;;5096093;28;20425;-80
2022/07/11 12:12:48;;;;;;;;;;;39.60;45.00;;;;;;5077760;28;19915;-77
2022/07/11 12:15:28;;;;;;;;;;;39.70;45.50;;;;;;5095918;28;19908;-77
2022/07/11 12:17:59;;;;;;;;;;;40.40;45.20;;;;;;5096194;28;19915;-78
2022/07/11 12:20:38;;;;;;;;;;;40.20;44.30;;;;;;5095210;28;19908;-78
2022/07/11 12:23:05;;;;;;;;;;;38.50;45.00;;;;;;5095645;28;19915;-79
2022/07/11 12:25:31;;;;;;;;;;;37.70;46.00;;;;;;5095690;28;19908;-79
2022/07/11 12:27:59;;;;;;;;;;;37.90;46.60;;;;;;5096201;28;19915;-80
2022/07/11 12:30:24;;;;;;;;;;;38.00;46.90;;;;;;5095694;28;19916;-79
2022/07/11 12:33:06;;;;;;;;;;;38.80;46.80;;;;;;5077388;28;19908;-79
2022/07/11 12:35:32;;;;;;;;;;;39.10;45.90;;;;;;5095464;28;20375;-78
2022/07/11 12:37:57;;;;;;;;;;;39.50;45.80;;;;;;5095788;28;19912;-79
2022/07/11 12:40:23;;;;;;;;;;;39.90;45.10;;;;;;5095172;28;19916;-79
2022/07/11 12:42:49;;;;;;;;;;;39.40;45.40;;;;;;5095507;28;20261;-78
2022/07/11 12:45:15;;;;;;;;;;;39.10;45.40;;;;;;5095439;28;20005;-79
2022/07/11 12:47:42;;;;;;;;;;;39.30;45.40;;;;;;5095330;28;19912;-79
2022/07/11 12:50:20;;;;;;;;;;;38.80;45.60;;;;;;5095334;28;20074;-79
2022/07/11 12:52:50;;;;;;;;;;;38.50;46.10;;;;;;5095162;28;19908;-79
2022/07/11 12:55:22;;;;;;;;;;;39.50;46.20;;;;;;5095073;28;20280;-78
2022/07/11 12:58:00;;;;;;;;;;;39.10;45.60;;;;;;5095248;28;19961;-79
2022/07/11 13:00:26;;;;;;;;;;;39.40;46.20;;;;;;5094884;28;19915;-78
2022/07/11 13:02:52;;;;;;;;;;;40.00;45.80;;;;;;5094940;28;20300;-78
2022/07/11 13:05:18;;;;;;;;;;;39.90;45.90;;;;;;5094835;28;20426;-78
2022/07/11 13:10:50;;;;;;;;;;;40.20;45.30;;;;;;5094562;28;20292;-77
2022/07/11 13:13:13;;;;;;;;;;;40.90;44.60;;;;;;5094551;28;19908;-80
2022/07/11 13:15:39;;;;;;;;;;;40.30;45.00;;;;;;5094702;28;19914;-77
2022/07/11 13:18:05;;;;;;;;;;;39.80;45.30;;;;;;5094638;28;19994;-79
2022/07/11 13:20:32;;;;;;;;;;;40.20;45.10;;;;;;5094597;28;19930;-78
2022/07/11 13:22:58;;;;;;;;;;;40.40;45.30;;;;;;5094533;28;19948;-79
2022/07/11 13:25:24;;;;;;;;;;;40.30;44.70;;;;;;5094495;28;20284;-79
2022/07/11 13:27:50;;;;;;;;;;;40.20;45.20;;;;;;5095072;28;19908;-79
2022/07/11 13:30:16;;;;;;;;;;;40.50;45.20;;;;;;5094467;28;19908;-81
2022/07/11 13:32:46;;;;;;;;;;;40.40;45.50;;;;;;5094271;28;19908;-78
2022/07/11 13:35:12;;;;;;;;;;;40.50;45.10;;;;;;5094578;28;19908;-79
2022/07/11 13:37:40;;;;;;;;;;;40.50;45.20;;;;;;5094594;28;19908;-77
2022/07/11 13:40:08;;;;;;;;;;;39.90;44.80;;;;;;5094082;28;19908;-78
2022/07/11 13:42:34;;;;;;;;;;;39.60;45.30;;;;;;5094380;28;19908;-78
2022/07/11 13:45:00;;;;;;;;;;;40.20;45.00;;;;;;5094613;28;20019;-79
2022/07/11 13:47:26;;;;;;;;;;;40.40;45.30;;;;;;5094466;28;19908;-79
2022/07/11 13:49:52;;;;;;;;;;;40.70;45.10;;;;;;5094199;28;19915;-80
2022/07/11 13:52:17;;;;;;;;;;;40.50;44.60;;;;;;5094231;28;20322;-78
2022/07/11 13:54:43;;;;;;;;;;;40.00;45.50;;;;;;5094111;28;19916;-78
2022/07/11 13:57:08;;;;;;;;;;;40.00;45.60;;;;;;5094078;28;20431;-78
2022/07/11 13:59:35;;;;;;;;;;;40.10;45.80;;;;;;5094346;28;19915;-78
2022/07/11 14:02:01;;;;;;;;;;;40.20;45.90;;;;;;5094034;28;19994;-79
2022/07/11 14:04:27;;;;;;;;;;;40.40;45.40;;;;;;5093915;28;20006;-78
2022/07/11 14:06:52;;;;;;;;;;;40.80;44.50;;;;;;5093900;28;19915;-78
2022/07/11 14:09:18;;;;;;;;;;;41.50;44.40;;;;;;5094214;28;19913;-79
2022/07/11 14:11:43;;;;;;;;;;;40.50;44.30;;;;;;5075661;28;19915;-80
2022/07/11 14:14:09;;;;;;;;;;;40.60;44.50;;;;;;5093915;28;19915;-79
2022/07/11 14:16:35;;;;;;;;;;;40.60;44.30;;;;;;5093833;28;19915;-79
2022/07/11 14:19:04;;;;;;;;;;;41.40;44.70;;;;;;5075639;28;20431;-79
2022/07/11 14:21:30;;;;;;;;;;;41.50;44.60;;;;;;5093752;28;19912;-79
2022/07/11 14:23:56;;;;;;;;;;;40.90;44.40;;;;;;5093669;28;20331;-79
2022/07/11 14:26:21;;;;;;;;;;;41.00;44.80;;;;;;5093805;28;19908;-78
2022/07/11 14:28:48;;;;;;;;;;;41.40;44.70;;;;;;5094261;28;19951;-78
2022/07/11 14:31:15;;;;;;;;;;;41.90;44.90;;;;;;5093978;28;19912;-80